Angler Guide Weather for Cape George -
Cape George, Nova Scotia Current Weather Conditions
Enter your "Place, State", US Zip Code or ICAO:  
Forecast Information Radar Information
Cape George, Nova Scotia, Canada  Lat: 45.85N, Lon: 61.9W
ICAO Used: CYQY
Current Conditions
Updated:
Sun & Moon Information:
Temp: N/A
Humidity: N/A
Wind Speed: N/A
Barometer: N/A
Dewpoint: N/A
Heat Index: N/A
Wind Chill: N/A
Civil Twilight: 7:07 AM AST
Moonrise: 5:51 AM AST Moon Phase:
Waning Crescent Moon
Waning Crescent Moon
Moonset: 3:43 PM AST
Sunrise: 7:41 AM AST
Sunset: 4:22 PM AST
Civil Twilight: 4:57 PM AST
Forecast for Cape George, NS:
(Forecast based on TAF for )
0148 PM AST MON NOV 06 2006
  
AFTERNOONEVENINGOVERNIGHT
(?:MOSTLY CLOUDY(?:MOSTLY CLOUDYMOSTLY CLOUDY
(?:Mostly
Cloudy
(?:Mostly
Cloudy
Mostly
Cloudy
TAF based forecast:
Dated: 0148 PM AST MON NOV 06 2006
Afternoon...Mostly cloudy with winds from the west north west at 9 mph. Then becoming mostly cloudy with winds variable at 3 mph. Possible periods of overcast with light showers,rain,snow and mist.
Evening...Becoming mostly cloudy with winds variable at 3 mph. Possible periods of overcast with light showers,rain,snow and mist.
Overnight...Mostly cloudy with winds variable at 3 mph.
Original Encoded TAF:
Dated: 0148 PM AST MON NOV 06 2006
2006/11/06 17:48
CYQY 061748Z 061806 29008KT P6SM SCT020 BKN050 TEMPO 1801 5SM -SHRASN BR BKN020 OVC050 BECMG 2022 VRB03KT=




Powered by Angler Guide.com
Copyright 2007, all rights reserved.